| time (UTC) | temp F | wind direction | speed knots | gust knots | rain 1hr in | rain 24hr in | rain mn in | humidity % | barometer mb |
| 20260504160153 | 75 | 308 | 1.7 | 9.6 | 0.00 | 0.00 | 0.00 | 46 | 1020.7 |
| 20260504151121 | 75 | 270 | 0.0 | 2.6 | 0.00 | 0.00 | 0.00 | 50 | 1020.8 |
| 20260504150618 | 75 | 104 | 2.6 | 3.5 | 0.00 | 0.00 | 0.00 | 49 | 1020.8 |
| 20260504150115 | 74 | 159 | 2.6 | 2.6 | 0.00 | 0.00 | 0.00 | 49 | 1020.7 |
| 20260504141044 | 73 | 121 | 3.5 | 3.5 | 0.00 | 0.00 | 0.00 | 55 | 1021.0 |
| 20260504140540 | 73 | 146 | 1.7 | 4.3 | 0.00 | 0.00 | 0.00 | 54 | 1021.0 |
| 20260504130504 | 65 | 176 | 1.7 | 2.6 | 0.00 | 0.00 | 0.00 | 83 | 1020.8 |
| 20260504110351 | 46 | 23 | 0.0 | 0.0 | 0.00 | 0.00 | 0.00 | 99 | 1020.3 |
| 20260504100309 | 46 | 106 | 0.0 | 0.0 | 0.00 | 0.00 | 0.00 | 99 | 1020.3 |
| 20260504081703 | 48 | 111 | 0.0 | 0.0 | 0.00 | 0.00 | 0.00 | 99 | 1020.5 |
| 20260504081159 | 48 | 90 | 0.0 | 1.7 | 0.00 | 0.00 | 0.00 | 99 | 1020.5 |
| 20260504080655 | 48 | 60 | 0.0 | 0.0 | 0.00 | 0.00 | 0.00 | 99 | 1020.6 |
| 20260504080152 | 48 | 60 | 0.0 | 0.9 | 0.00 | 0.00 | 0.00 | 99 | 1020.5 |
| 20260504070120 | 49 | 16 | 0.0 | 0.0 | 0.00 | 0.00 | 0.00 | 99 | 1020.7 |
| 20260504050508 | 51 | 95 | 1.7 | 1.7 | 0.00 | 0.00 | 0.00 | 99 | 1021.3 |
| 20260504050005 | 51 | 99 | 0.0 | 0.9 | 0.00 | 0.00 | 0.00 | 99 | 1021.5 |
| 20260504045501 | 51 | 74 | 0.0 | 0.0 | 0.00 | 0.00 | 0.00 | 99 | 1021.5 |
| 20260504044957 | 51 | 101 | 1.7 | 1.7 | 0.00 | 0.00 | 0.00 | 99 | 1021.4 |
| 20260504044455 | 50 | 103 | 0.9 | 0.9 | 0.00 | 0.00 | 0.00 | 99 | 1021.6 |
| 20260504043952 | 51 | 105 | 0.0 | 0.0 | 0.00 | 0.00 | 0.00 | 99 | 1021.5 |
| 20260504043449 | 51 | 105 | 0.0 | 0.0 | 0.00 | 0.00 | 0.00 | 99 | 1021.2 |
| 20260504042946 | 51 | 114 | 0.0 | 1.7 | 0.00 | 0.00 | 0.00 | 99 | 1021.2 |
| 20260504042443 | 51 | 151 | 0.0 | 1.7 | 0.00 | 0.00 | 0.00 | 99 | 1021.2 |
| 20260504041940 | 51 | 81 | 0.0 | 1.7 | 0.00 | 0.00 | 0.00 | 99 | 1021.2 |
| 20260504041436 | 51 | 114 | 0.0 | 0.9 | 0.00 | 0.00 | 0.00 | 99 | 1021.1 |
| 20260504040932 | 51 | 106 | 0.0 | 0.0 | 0.00 | 0.00 | 0.00 | 99 | 1021.1 |
| 20260504040430 | 51 | 180 | 0.0 | 0.0 | 0.00 | 0.00 | 0.00 | 98 | 1021.2 |
| 20260504035925 | 52 | 8 | 0.0 | 0.0 | 0.00 | 0.00 | 0.00 | 98 | 1021.3 |
| 20260504035423 | 52 | 90 | 0.0 | 0.0 | 0.00 | 0.00 | 0.00 | 96 | 1021.1 |
| 20260504034919 | 52 | 105 | 0.0 | 0.9 | 0.00 | 0.00 | 0.00 | 97 | 1021.3 |
| 20260504034417 | 52 | 106 | 0.0 | 0.9 | 0.00 | 0.00 | 0.00 | 97 | 1021.2 |
| 20260504033914 | 52 | 90 | 0.0 | 0.0 | 0.00 | 0.00 | 0.00 | 97 | 1021.3 |
| 20260504033412 | 52 | 90 | 0.0 | 0.0 | 0.00 | 0.00 | 0.00 | 97 | 1021.3 |
| 20260504032909 | 53 | 90 | 0.0 | 0.0 | 0.00 | 0.00 | 0.00 | 96 | 1021.3 |
| 20260504032405 | 53 | 114 | 0.0 | 0.0 | 0.00 | 0.00 | 0.00 | 95 | 1021.2 |
| 20260504031902 | 54 | 90 | 0.0 | 0.9 | 0.00 | 0.00 | 0.00 | 94 | 1021.3 |
| 20260504031359 | 54 | 60 | 0.0 | 1.7 | 0.00 | 0.00 | 0.00 | 91 | 1021.1 |
| 20260504030855 | 54 | 90 | 1.7 | 1.7 | 0.00 | 0.00 | 0.00 | 88 | 1021.2 |
| 20260504030353 | 53 | 77 | 0.9 | 1.7 | 0.00 | 0.00 | 0.00 | 95 | 1021.3 |
| 20260504025849 | 54 | 74 | 0.9 | 0.9 | 0.00 | 0.00 | 0.00 | 95 | 1021.2 |
| 20260504025346 | 54 | 114 | 0.0 | 0.9 | 0.00 | 0.00 | 0.00 | 94 | 1021.2 |
| 20260504024843 | 55 | 66 | 0.0 | 0.0 | 0.00 | 0.00 | 0.00 | 94 | 1021.3 |
| 20260504024339 | 55 | 74 | 0.9 | 0.9 | 0.00 | 0.00 | 0.00 | 89 | 1021.2 |
| 20260504023836 | 55 | 77 | 0.9 | 1.7 | 0.00 | 0.00 | 0.00 | 86 | 1021.1 |
| 20260504023333 | 55 | 90 | 0.9 | 1.7 | 0.00 | 0.00 | 0.00 | 88 | 1021.1 |
| 20260504022828 | 55 | 103 | 0.9 | 1.7 | 0.00 | 0.00 | 0.00 | 84 | 1021.0 |
| 20260504022326 | 55 | 85 | 1.7 | 1.7 | 0.00 | 0.00 | 0.00 | 87 | 1020.9 |
| 20260504021822 | 55 | 96 | 1.7 | 1.7 | 0.00 | 0.00 | 0.00 | 91 | 1021.1 |
| 20260504021320 | 55 | 90 | 0.0 | 1.7 | 0.00 | 0.00 | 0.00 | 91 | 1021.0 |
| 20260504020816 | 55 | 81 | 0.0 | 1.7 | 0.00 | 0.00 | 0.00 | 86 | 1021.1 |
| 20260504020313 | 56 | 82 | 0.0 | 1.7 | 0.00 | 0.00 | 0.00 | 88 | 1021.2 |
| 20260504015809 | 57 | 90 | 0.0 | 0.0 | 0.00 | 0.00 | 0.00 | 87 | 1021.0 |
| 20260504015305 | 56 | 90 | 0.0 | 0.9 | 0.00 | 0.00 | 0.00 | 81 | 1021.0 |
| 20260504014801 | 57 | 90 | 0.0 | 0.9 | 0.00 | 0.00 | 0.00 | 84 | 1021.0 |
| 20260504014258 | 57 | 106 | 0.0 | 0.0 | 0.00 | 0.00 | 0.00 | 85 | 1020.8 |
| 20260504013755 | 58 | 99 | 0.0 | 0.9 | 0.00 | 0.00 | 0.00 | 80 | 1020.8 |
| 20260504013253 | 58 | 105 | 0.9 | 1.7 | 0.00 | 0.00 | 0.00 | 76 | 1020.6 |
| 20260504012749 | 59 | 78 | 1.7 | 1.7 | 0.00 | 0.00 | 0.00 | 78 | 1020.6 |
| 20260504012247 | 59 | 90 | 0.0 | 0.9 | 0.00 | 0.00 | 0.00 | 82 | 1020.5 |
| 20260504011744 | 59 | 126 | 0.0 | 0.9 | 0.00 | 0.00 | 0.00 | 74 | 1020.5 |
| 20260504011241 | 59 | 195 | 0.0 | 0.9 | 0.00 | 0.00 | 0.00 | 72 | 1020.4 |
| 20260504010737 | 59 | 90 | 0.0 | 0.0 | 0.00 | 0.00 | 0.00 | 79 | 1020.3 |
| 20260504010232 | 60 | 90 | 0.0 | 0.0 | 0.00 | 0.00 | 0.00 | 72 | 1020.4 |
| 20260504005730 | 61 | 90 | 0.0 | 0.9 | 0.00 | 0.00 | 0.00 | 73 | 1020.4 |
| 20260504005227 | 62 | 90 | 0.0 | 1.7 | 0.00 | 0.00 | 0.00 | 66 | 1020.3 |
| 20260504004724 | 62 | 106 | 0.9 | 0.9 | 0.00 | 0.00 | 0.00 | 64 | 1020.2 |
| 20260504004221 | 63 | 90 | 0.0 | 0.0 | 0.00 | 0.00 | 0.00 | 68 | 1020.3 |
| 20260504003718 | 64 | 90 | 0.9 | 0.9 | 0.00 | 0.00 | 0.00 | 60 | 1020.1 |
| 20260504003215 | 64 | 103 | 0.9 | 1.7 | 0.00 | 0.00 | 0.00 | 56 | 1020.1 |
| 20260504002711 | 65 | 114 | 0.0 | 0.9 | 0.00 | 0.00 | 0.00 | 61 | 1020.2 |
| 20260504002208 | 66 | 23 | 0.0 | 0.9 | 0.00 | 0.00 | 0.00 | 51 | 1020.0 |
| 20260504001706 | 67 | 15 | 0.0 | 0.0 | 0.00 | 0.00 | 0.00 | 49 | 1020.0 |
| 20260504001203 | 68 | 353 | 0.0 | 0.0 | 0.00 | 0.00 | 0.00 | 49 | 1020.1 |
| 20260504000700 | 69 | 352 | 0.0 | 0.9 | 0.00 | 0.00 | 0.00 | 45 | 1019.8 |
| 20260504000157 | 70 | 277 | 0.0 | 0.9 | 0.00 | 0.00 | 0.00 | 45 | 1019.9 |
| 20260503235655 | 71 | 340 | 0.0 | 0.9 | 0.00 | 0.00 | 0.00 | 43 | 1019.7 |
| 20260503235151 | 72 | 352 | 0.0 | 2.6 | 0.00 | 0.00 | 0.00 | 42 | 1019.8 |
| 20260503234649 | 73 | 352 | 0.0 | 2.6 | 0.00 | 0.00 | 0.00 | 42 | 1019.7 |
| 20260503234147 | 73 | 349 | 1.7 | 1.7 | 0.00 | 0.00 | 0.00 | 41 | 1019.7 |
| 20260503233644 | 74 | 14 | 0.9 | 2.6 | 0.00 | 0.00 | 0.00 | 39 | 1019.7 |
| 20260503233139 | 74 | 283 | 1.7 | 3.5 | 0.00 | 0.00 | 0.00 | 38 | 1019.6 |
| 20260503232636 | 74 | 0 | 0.0 | 2.6 | 0.00 | 0.00 | 0.00 | 39 | 1019.6 |
| 20260503232134 | 74 | 313 | 2.6 | 3.5 | 0.00 | 0.00 | 0.00 | 38 | 1019.6 |
| 20260503231632 | 75 | 0 | 0.0 | 2.6 | 0.00 | 0.00 | 0.00 | 39 | 1019.8 |
| 20260503231128 | 74 | 13 | 2.6 | 4.3 | 0.00 | 0.00 | 0.00 | 38 | 1019.8 |
| 20260503230625 | 74 | 358 | 3.5 | 7.8 | 0.00 | 0.00 | 0.00 | 37 | 1019.7 |
| 20260503230122 | 74 | 0 | 0.9 | 7.0 | 0.00 | 0.00 | 0.00 | 39 | 1019.8 |
| 20260503225620 | 75 | 7 | 3.5 | 7.0 | 0.00 | 0.00 | 0.00 | 38 | 1019.7 |
| 20260503225119 | 75 | 250 | 1.7 | 6.1 | 0.00 | 0.00 | 0.00 | 38 | 1019.8 |
| 20260503224617 | 77 | 282 | 0.0 | 1.7 | 0.00 | 0.00 | 0.00 | 38 | 1019.9 |
| 20260503224115 | 75 | 340 | 3.5 | 4.3 | 0.00 | 0.00 | 0.00 | 38 | 1019.8 |
| 20260503223613 | 75 | 323 | 0.0 | 6.1 | 0.00 | 0.00 | 0.00 | 37 | 1019.9 |
| 20260503223108 | 75 | 200 | 4.3 | 7.8 | 0.00 | 0.00 | 0.00 | 38 | 1019.8 |
| 20260503222606 | 75 | 270 | 0.9 | 5.2 | 0.00 | 0.00 | 0.00 | 39 | 1020.0 |
| 20260503222104 | 75 | 292 | 1.7 | 7.0 | 0.00 | 0.00 | 0.00 | 38 | 1019.9 |
| 20260503221602 | 75 | 357 | 0.0 | 6.1 | 0.00 | 0.00 | 0.00 | 40 | 1019.8 |
| 20260503221059 | 75 | 9 | 3.5 | 7.0 | 0.00 | 0.00 | 0.00 | 39 | 1019.9 |
| 20260503220555 | 75 | 358 | 2.6 | 4.3 | 0.00 | 0.00 | 0.00 | 40 | 1019.9 |
| 20260503220052 | 75 | 261 | 5.2 | 7.8 | 0.00 | 0.00 | 0.00 | 39 | 1019.9 |
| 20260503215549 | 75 | 25 | 5.2 | 7.0 | 0.00 | 0.00 | 0.00 | 40 | 1019.8 |
| 20260503215046 | 76 | 358 | 3.5 | 6.1 | 0.00 | 0.00 | 0.00 | 41 | 1019.8 |
| 20260503214544 | 75 | 56 | 3.5 | 6.1 | 0.00 | 0.00 | 0.00 | 40 | 1020.0 |
| 20260503214040 | 77 | 314 | 4.3 | 5.2 | 0.00 | 0.00 | 0.00 | 40 | 1019.8 |
| 20260503213539 | 75 | 124 | 2.6 | 2.6 | 0.00 | 0.00 | 0.00 | 40 | 1019.8 |
| 20260503213035 | 76 | 353 | 5.2 | 5.2 | 0.00 | 0.00 | 0.00 | 41 | 1020.0 |
| 20260503212533 | 75 | 49 | 1.7 | 6.1 | 0.00 | 0.00 | 0.00 | 41 | 1020.1 |
| 20260503212030 | 75 | 13 | 4.3 | 10.4 | 0.00 | 0.00 | 0.00 | 40 | 1020.0 |
| 20260503211527 | 75 | 33 | 3.5 | 7.0 | 0.00 | 0.00 | 0.00 | 40 | 1020.1 |
| 20260503211022 | 74 | 79 | 2.6 | 7.0 | 0.00 | 0.00 | 0.00 | 39 | 1020.1 |
| 20260503210519 | 75 | 33 | 3.5 | 7.8 | 0.00 | 0.00 | 0.00 | 40 | 1020.1 |
| 20260503210015 | 75 | 56 | 6.1 | 9.6 | 0.00 | 0.00 | 0.00 | 39 | 1020.2 |
| 20260503205512 | 75 | 2 | 3.5 | 8.7 | 0.00 | 0.00 | 0.00 | 38 | 1020.2 |
| 20260503205008 | 75 | 4 | 3.5 | 4.3 | 0.00 | 0.00 | 0.00 | 40 | 1020.2 |
| 20260503204506 | 76 | 0 | 4.3 | 4.3 | 0.00 | 0.00 | 0.00 | 39 | 1020.4 |
| 20260503204002 | 76 | 241 | 2.6 | 5.2 | 0.00 | 0.00 | 0.00 | 39 | 1020.4 |
| 20260503203500 | 75 | 330 | 3.5 | 9.6 | 0.00 | 0.00 | 0.00 | 41 | 1020.5 |
| 20260503202956 | 76 | 250 | 7.0 | 7.0 | 0.00 | 0.00 | 0.00 | 39 | 1020.5 |
| 20260503202454 | 75 | 63 | 1.7 | 9.6 | 0.00 | 0.00 | 0.00 | 39 | 1020.8 |
| 20260503201953 | 74 | 335 | 5.2 | 10.4 | 0.00 | 0.00 | 0.00 | 40 | 1020.7 |
| 20260503201450 | 75 | 309 | 1.7 | 7.0 | 0.00 | 0.00 | 0.00 | 39 | 1020.8 |
| 20260503200947 | 75 | 255 | 0.9 | 5.2 | 0.00 | 0.00 | 0.00 | 38 | 1020.7 |
| 20260503200443 | 75 | 211 | 2.6 | 2.6 | 0.00 | 0.00 | 0.00 | 40 | 1021.0 |
| 20260503195940 | 75 | 332 | 3.5 | 9.6 | 0.00 | 0.00 | 0.00 | 38 | 1020.9 |
| 20260503195437 | 75 | 294 | 0.0 | 6.1 | 0.00 | 0.00 | 0.00 | 41 | 1021.1 |
| 20260503194933 | 74 | 323 | 1.7 | 7.0 | 0.00 | 0.00 | 0.00 | 41 | 1021.2 |
| 20260503194431 | 75 | 14 | 6.1 | 6.1 | 0.00 | 0.00 | 0.00 | 42 | 1021.3 |
| 20260503193926 | 75 | 270 | 8.7 | 9.6 | 0.00 | 0.00 | 0.00 | 40 | 1021.5 |
| 20260503193422 | 75 | 270 | 0.0 | 7.0 | 0.00 | 0.00 | 0.00 | 41 | 1021.5 |
| 20260503192917 | 74 | 11 | 5.2 | 7.0 | 0.00 | 0.00 | 0.00 | 42 | 1021.5 |
| 20260503192414 | 73 | 35 | 2.6 | 6.1 | 0.00 | 0.00 | 0.00 | 41 | 1021.7 |
| 20260503191910 | 75 | 270 | 1.7 | 4.3 | 0.00 | 0.00 | 0.00 | 40 | 1021.6 |
| 20260503191408 | 75 | 304 | 2.6 | 4.3 | 0.00 | 0.00 | 0.00 | 42 | 1022.0 |
| 20260503190904 | 74 | 262 | 1.7 | 8.7 | 0.00 | 0.00 | 0.00 | 41 | 1021.9 |
| 20260503190401 | 74 | 73 | 5.2 | 8.7 | 0.00 | 0.00 | 0.00 | 42 | 1021.9 |
| 20260503185858 | 74 | 22 | 2.6 | 7.8 | 0.00 | 0.00 | 0.00 | 42 | 1022.0 |
| 20260503185354 | 74 | 73 | 3.5 | 5.2 | 0.00 | 0.00 | 0.00 | 41 | 1021.9 |
| 20260503184854 | 73 | 98 | 3.5 | 7.0 | 0.00 | 0.00 | 0.00 | 38 | 1022.0 |
| 20260503184350 | 73 | 63 | 2.6 | 7.8 | 0.00 | 0.00 | 0.00 | 40 | 1022.0 |
| 20260503183846 | 73 | 43 | 5.2 | 11.3 | 0.00 | 0.00 | 0.00 | 37 | 1022.0 |
| 20260503183344 | 73 | 347 | 6.1 | 7.0 | 0.00 | 0.00 | 0.00 | 40 | 1022.1 |
| 20260503182841 | 73 | 46 | 3.5 | 7.8 | 0.00 | 0.00 | 0.00 | 38 | 1022.1 |
| 20260503182340 | 73 | 337 | 2.6 | 10.4 | 0.00 | 0.00 | 0.00 | 41 | 1022.3 |
| 20260503181837 | 73 | 354 | 8.7 | 9.6 | 0.00 | 0.00 | 0.00 | 40 | 1022.1 |
| 20260503181334 | 72 | 77 | 4.3 | 7.8 | 0.00 | 0.00 | 0.00 | 39 | 1022.0 |
| 20260503180830 | 73 | 33 | 0.0 | 7.0 | 0.00 | 0.00 | 0.00 | 43 | 1022.1 |
| 20260503180328 | 74 | 349 | 3.5 | 5.2 | 0.00 | 0.00 | 0.00 | 41 | 1022.1 |
| 20260503175824 | 72 | 294 | 0.9 | 5.2 | 0.00 | 0.00 | 0.00 | 41 | 1022.4 |
| 20260503175322 | 72 | 327 | 3.5 | 7.0 | 0.00 | 0.00 | 0.00 | 41 | 1022.6 |
| 20260503174817 | 72 | 357 | 2.6 | 4.3 | 0.00 | 0.00 | 0.00 | 44 | 1022.5 |
| 20260503174316 | 72 | 2 | 5.2 | 10.4 | 0.00 | 0.00 | 0.00 | 43 | 1022.7 |
| 20260503173811 | 72 | 351 | 5.2 | 7.8 | 0.00 | 0.00 | 0.00 | 43 | 1022.6 |
| 20260503173307 | 71 | 358 | 3.5 | 6.1 | 0.00 | 0.00 | 0.00 | 43 | 1022.8 |
| 20260503172804 | 72 | 291 | 5.2 | 9.6 | 0.00 | 0.00 | 0.00 | 42 | 1023.0 |
| 20260503172304 | 72 | 260 | 6.1 | 12.2 | 0.00 | 0.00 | 0.00 | 43 | 1023.0 |
| 20260503171758 | 71 | 28 | 4.3 | 9.6 | 0.00 | 0.00 | 0.00 | 44 | 1023.1 |
| 20260503171255 | 71 | 45 | 2.6 | 6.1 | 0.00 | 0.00 | 0.00 | 41 | 1023.0 |
| 20260503170752 | 71 | 327 | 3.5 | 7.8 | 0.00 | 0.00 | 0.00 | 41 | 1023.2 |
| 20260503170249 | 72 | 278 | 5.2 | 5.2 | 0.00 | 0.00 | 0.00 | 40 | 1023.3 |